Hillsdale, KS

11:19 PM CST on December 27, 2014 (GMT -0600)
Powell Observatory, Lewis Young Park | Change Station
CLOSE
Current Station
Personal Weather Station
Location: Louisburg, KS
Elevation: 1073 ft
Nearby Weather Stations

Elev 1073 ft 38.65 °N, 94.70 °W | Updated 2 seconds ago

Clear
Clear
20.7 °F
Feels Like 21 °F
N
0.0
Wind Variable Wind from WSW
Gusts 3.1 mph

Today
High -- | Low -- °F
--% Chance of Precip.
Yesterday
High -- | Low -- °F
Precip. -- in
7:36 AM 5:04 PM
Waxing Crescent, 44% visible
Pressure 30.32 in
Visibility 10.0 miles
Clouds Clear
Windchill 21 °F
Dew Point 16 °F
Humidity 81%
Rainfall 0.00 in
Snow Depth Not available.
UV 0 out of 12
Pollen .10 out of 12
Air Quality Not available.
Flu Activity Not available.
METAR KIXD 280453Z AUTO 00000KT 10SM CLR M05/M08 A3028 RMK AO2 SLP265 T10501078

More Conditions Fewer Conditions

Pressure 30.32 in
Visibility 10.0 miles
Clouds Clear
Windchill 21 °F
Dew Point 16 °F
Humidity 81%
Rainfall 0.00 in
Snow Depth Not available.
UV 0 out of 12
Pollen .10 out of 12
Air Quality Not available.
Flu Activity Not available.
METAR KIXD 280453Z AUTO 00000KT 10SM CLR M05/M08 A3028 RMK AO2 SLP265 T10501078

More Conditions Fewer Conditions

10-Day Weather Forecast

Almanac

Astronomy

Dec. 27, 2014 Rise Set
Actual Time
Civil Twilight
Nautical Twilight
Astronomical Twilight
Moon
Length of Visible Light
Length of Day
Tomorrow will be .
, % of the Moon is Illuminated

Today's Extremes

State Highs State Lows

Community

WunderPhotos

Upload Photos

1,781,205 photos uploaded!

WunderBlogs® & News

Nearby

Air Quality

  Air Quality AQ Index Pollutant
Not available.

Snow Depth

Station Depth Elevation

Earthquake Activity

City Distance Mag. Time & Date
Minimum magnitude displayed is 2.5.

Coastal Water Temperatures

Place Temperature

Nearby Weather Stations